createdAt,value
2023-11-23T00:00:12.483Z,67.82
2023-11-23T00:02:40.163Z,67.85
2023-11-23T00:05:10.847Z,68.63
2023-11-23T00:07:39.181Z,68.20
2023-11-23T00:10:06.987Z,67.53
2023-11-23T00:12:33.795Z,68.51
2023-11-23T00:15:03.395Z,68.79
2023-11-23T00:17:31.849Z,69.10
2023-11-23T00:19:59.259Z,67.97
2023-11-23T00:22:27.093Z,68.06
2023-11-23T00:24:55.327Z,68.52
2023-11-23T00:27:21.907Z,68.79
2023-11-23T00:29:48.596Z,68.78
2023-11-23T00:32:15.233Z,68.75
2023-11-23T00:34:41.872Z,69.50
2023-11-23T00:37:08.485Z,68.79
2023-11-23T00:39:35.741Z,68.41
2023-11-23T00:42:02.581Z,68.78
2023-11-23T00:44:29.174Z,69.05
2023-11-23T00:46:55.776Z,68.15
2023-11-23T00:49:22.941Z,70.19
2023-11-23T00:51:49.497Z,68.68
2023-11-23T00:54:16.889Z,68.60
2023-11-23T00:56:43.476Z,70.46
2023-11-23T00:59:10.041Z,68.66
2023-11-23T01:01:36.747Z,69.22
2023-11-23T01:04:03.618Z,68.65
2023-11-23T01:06:30.170Z,70.22
2023-11-23T01:08:56.890Z,68.65
2023-11-23T01:11:25.142Z,68.68
2023-11-23T01:13:51.998Z,69.44
2023-11-23T01:16:18.637Z,68.71
2023-11-23T01:18:45.238Z,69.71
2023-11-23T01:21:12.977Z,69.25
2023-11-23T01:23:39.604Z,69.27
2023-11-23T01:26:07.014Z,69.01
2023-11-23T01:28:33.649Z,69.93
2023-11-23T01:31:00.782Z,70.22
2023-11-23T01:33:27.436Z,71.65
2023-11-23T01:35:54.126Z,69.49
2023-11-23T01:38:20.760Z,71.45
2023-11-23T01:40:47.575Z,71.29
2023-11-23T01:43:14.222Z,71.65
2023-11-23T01:45:41.672Z,71.34
2023-11-23T01:48:10.056Z,71.53
2023-11-23T01:50:39.578Z,70.58
2023-11-23T01:53:06.256Z,71.80
2023-11-23T01:55:32.907Z,70.63
2023-11-23T01:58:03.446Z,69.62
2023-11-23T02:00:31.557Z,70.14
2023-11-23T02:03:00.303Z,70.64
2023-11-23T02:05:27.941Z,70.89
2023-11-23T02:07:54.614Z,71.39
2023-11-23T02:10:24.189Z,73.26
2023-11-23T02:12:51.478Z,70.40
2023-11-23T02:15:19.996Z,70.15
2023-11-23T02:17:47.185Z,71.40
2023-11-23T02:20:14.865Z,70.92
2023-11-23T02:22:41.549Z,70.65
2023-11-23T02:25:08.444Z,71.34
2023-11-23T02:27:38.170Z,70.69
2023-11-23T02:30:07.195Z,70.26
2023-11-23T02:32:34.340Z,70.63
2023-11-23T02:35:04.139Z,70.53
2023-11-23T02:37:30.760Z,72.45
2023-11-23T02:39:57.297Z,70.35
2023-11-23T02:42:26.336Z,70.53
2023-11-23T02:44:52.953Z,72.11
2023-11-23T02:47:22.244Z,70.58
2023-11-23T02:49:48.707Z,71.04
2023-11-23T02:52:15.334Z,71.48
2023-11-23T02:54:41.982Z,73.04
2023-11-23T02:57:08.612Z,71.84
2023-11-23T02:59:35.170Z,71.83
2023-11-23T03:02:01.733Z,72.24
2023-11-23T03:04:28.816Z,73.35
2023-11-23T03:06:56.090Z,73.06
2023-11-23T03:09:24.376Z,72.72
2023-11-23T03:11:51.232Z,72.57
2023-11-23T03:14:17.720Z,72.63
2023-11-23T03:16:45.404Z,70.86
2023-11-23T03:19:12.062Z,71.48
2023-11-23T03:21:38.818Z,73.94
2023-11-23T03:24:05.629Z,72.84
2023-11-23T03:26:32.367Z,72.14
2023-11-23T03:28:58.912Z,69.73
2023-11-23T03:31:25.371Z,69.89
2023-11-23T03:33:51.924Z,69.57
2023-11-23T03:36:18.738Z,69.18
2023-11-23T03:38:45.434Z,68.65
2023-11-23T03:41:12.025Z,69.33
2023-11-23T03:43:38.770Z,70.68
2023-11-23T03:46:05.340Z,68.81
2023-11-23T03:48:31.991Z,69.20
2023-11-23T03:50:58.650Z,69.94
2023-11-23T03:53:25.162Z,70.14
2023-11-23T03:55:51.717Z,69.73
2023-11-23T03:58:18.227Z,69.33
2023-11-23T04:00:45.865Z,70.00
2023-11-23T04:03:12.406Z,70.96
2023-11-23T04:05:39.103Z,69.56
2023-11-23T04:08:05.984Z,70.15
2023-11-23T04:10:32.626Z,69.03
2023-11-23T04:12:59.202Z,68.35
2023-11-23T04:15:25.799Z,70.94
2023-11-23T04:17:52.429Z,68.92
2023-11-23T04:20:19.091Z,69.52
2023-11-23T04:22:45.644Z,69.36
2023-11-23T04:25:12.312Z,69.23
2023-11-23T04:27:39.012Z,70.07
2023-11-23T04:30:06.357Z,69.62
2023-11-23T04:32:34.205Z,69.14
2023-11-23T04:35:00.798Z,70.63
2023-11-23T04:37:27.302Z,71.05
2023-11-23T04:39:53.900Z,71.30
2023-11-23T04:42:20.888Z,72.27
2023-11-23T04:44:47.534Z,72.20
2023-11-23T04:47:14.063Z,72.79
2023-11-23T04:49:40.684Z,72.39
2023-11-23T04:52:07.227Z,70.47
2023-11-23T04:54:33.810Z,71.65
2023-11-23T04:57:00.548Z,70.08
2023-11-23T04:59:27.273Z,70.71
2023-11-23T05:01:54.284Z,70.99
2023-11-23T05:04:22.129Z,70.41
2023-11-23T05:06:48.961Z,69.68
2023-11-23T05:09:15.692Z,70.71
2023-11-23T05:11:42.402Z,70.35
2023-11-23T05:14:09.604Z,71.70
2023-11-23T05:16:36.789Z,71.72
2023-11-23T05:19:03.542Z,70.80
2023-11-23T05:21:30.301Z,71.69
2023-11-23T05:23:56.955Z,72.33
2023-11-23T05:26:23.746Z,70.70
2023-11-23T05:28:50.327Z,70.99
2023-11-23T05:31:16.958Z,70.84
2023-11-23T05:33:43.627Z,71.37
2023-11-23T05:36:12.507Z,71.29
2023-11-23T05:38:39.188Z,72.15
2023-11-23T05:41:06.243Z,72.27
2023-11-23T05:43:32.967Z,72.39
2023-11-23T05:45:59.536Z,72.46
2023-11-23T05:48:26.214Z,73.42
2023-11-23T05:50:53.943Z,72.50
2023-11-23T05:53:20.543Z,73.29
2023-11-23T05:55:47.220Z,73.68
2023-11-23T05:58:13.837Z,72.64
2023-11-23T06:00:40.478Z,71.90
2023-11-23T06:03:07.264Z,72.64
2023-11-23T06:05:34.040Z,72.16
2023-11-23T06:08:00.639Z,71.87
2023-11-23T06:10:28.283Z,71.84
2023-11-23T06:12:55.011Z,73.15
2023-11-23T06:15:21.593Z,72.50
2023-11-23T06:17:49.392Z,75.61
2023-11-23T06:20:16.297Z,72.62
2023-11-23T06:22:42.889Z,71.53
2023-11-23T06:25:09.486Z,72.69
2023-11-23T06:27:35.992Z,72.63
2023-11-23T06:30:02.976Z,73.63
2023-11-23T06:32:30.169Z,72.93
2023-11-23T06:34:56.735Z,71.91
2023-11-23T06:37:23.316Z,71.74
2023-11-23T06:39:49.839Z,72.32
2023-11-23T06:42:16.422Z,72.14
2023-11-23T06:44:43.123Z,72.09
2023-11-23T06:47:09.676Z,72.43
2023-11-23T06:49:36.325Z,72.55
2023-11-23T06:52:03.046Z,72.01
2023-11-23T06:54:29.689Z,71.82
2023-11-23T06:56:58.214Z,71.90
2023-11-23T06:59:25.060Z,72.56
2023-11-23T07:01:51.781Z,72.67
2023-11-23T07:04:18.292Z,72.25
2023-11-23T07:06:44.915Z,72.82
2023-11-23T07:09:14.332Z,72.57
2023-11-23T07:11:41.474Z,73.11
2023-11-23T07:14:08.320Z,72.80
2023-11-23T07:16:37.363Z,73.90
2023-11-23T07:19:04.133Z,73.81
2023-11-23T07:21:30.842Z,72.04
2023-11-23T07:23:57.531Z,71.78
2023-11-23T07:26:24.291Z,71.99
2023-11-23T07:28:51.021Z,71.16
2023-11-23T07:31:17.728Z,71.49
2023-11-23T07:33:45.864Z,72.03
2023-11-23T07:36:12.687Z,73.02
2023-11-23T07:38:39.276Z,71.55
2023-11-23T07:41:07.624Z,72.06
2023-11-23T07:43:37.624Z,72.44
2023-11-23T07:46:04.203Z,71.91
2023-11-23T07:48:32.372Z,72.35
2023-11-23T07:50:59.122Z,72.52
2023-11-23T07:53:29.931Z,71.66
2023-11-23T07:55:56.659Z,71.66
2023-11-23T07:58:23.375Z,71.12
2023-11-23T08:00:50.662Z,70.72
2023-11-23T08:03:17.656Z,70.67
2023-11-23T08:05:45.365Z,70.65
2023-11-23T08:08:12.561Z,70.63
2023-11-23T08:10:40.514Z,69.97
2023-11-23T08:13:07.185Z,70.00
2023-11-23T08:15:35.628Z,70.90
2023-11-23T08:18:07.770Z,70.84
2023-11-23T08:20:38.100Z,71.22
2023-11-23T08:23:06.007Z,71.23
2023-11-23T08:25:35.729Z,71.20
2023-11-23T08:28:04.045Z,70.90
2023-11-23T08:30:30.587Z,70.47
2023-11-23T08:32:57.637Z,69.39
2023-11-23T08:35:24.359Z,70.54
2023-11-23T08:37:51.094Z,69.69
2023-11-23T08:40:17.577Z,70.23
2023-11-23T08:42:44.098Z,70.30
2023-11-23T08:45:11.398Z,70.34
2023-11-23T08:47:38.168Z,70.06
2023-11-23T08:50:07.021Z,69.91
2023-11-23T08:52:33.578Z,70.39
2023-11-23T08:55:00.772Z,70.27
2023-11-23T08:57:29.465Z,69.41
2023-11-23T08:59:56.187Z,69.69
2023-11-23T09:02:22.976Z,70.84
2023-11-23T09:04:50.231Z,69.86
2023-11-23T09:07:17.390Z,70.15
2023-11-23T09:09:44.112Z,70.61
2023-11-23T09:12:10.783Z,70.66
2023-11-23T09:14:46.926Z,71.48
2023-11-23T09:17:17.137Z,70.55
2023-11-23T09:19:43.819Z,70.35
2023-11-23T09:22:11.851Z,70.05
2023-11-23T09:24:39.521Z,71.65
2023-11-23T09:27:10.644Z,70.46
2023-11-23T09:29:37.475Z,70.04
2023-11-23T09:32:04.474Z,70.11
2023-11-23T09:34:31.279Z,70.44
2023-11-23T09:36:57.932Z,70.52
2023-11-23T09:39:25.242Z,71.07
2023-11-23T09:41:53.209Z,70.82
2023-11-23T09:44:19.956Z,71.53
2023-11-23T09:46:47.604Z,71.77
2023-11-23T09:49:14.515Z,71.08
2023-11-23T09:51:45.735Z,70.43
2023-11-23T09:54:15.345Z,69.91
2023-11-23T09:56:42.074Z,70.39
2023-11-23T09:59:08.803Z,70.72
2023-11-23T10:01:44.301Z,69.53
2023-11-23T10:04:12.687Z,69.83
2023-11-23T10:06:39.484Z,70.43
2023-11-23T10:09:08.682Z,70.54
2023-11-23T10:11:35.650Z,70.61
2023-11-23T10:14:02.195Z,68.25
2023-11-23T10:16:32.887Z,68.38
2023-11-23T10:18:59.534Z,69.51
2023-11-23T10:21:26.086Z,69.88
2023-11-23T10:23:52.764Z,69.47
2023-11-23T10:26:19.505Z,69.64
2023-11-23T10:28:45.999Z,69.52
2023-11-23T10:31:14.037Z,69.66
2023-11-23T10:33:42.652Z,68.78
2023-11-23T10:36:09.954Z,69.14
2023-11-23T10:38:44.248Z,68.86
2023-11-23T10:41:12.994Z,69.06
2023-11-23T10:43:43.024Z,69.09
2023-11-23T10:46:11.137Z,69.46
2023-11-23T10:48:39.405Z,70.17
2023-11-23T10:51:07.537Z,69.12
2023-11-23T10:53:34.293Z,69.29
2023-11-23T10:56:23.786Z,69.33
2023-11-23T10:58:55.254Z,69.93
2023-11-23T11:01:24.412Z,70.18
2023-11-23T11:03:51.556Z,70.10
2023-11-23T11:06:19.059Z,70.42
2023-11-23T11:08:48.577Z,70.13
2023-11-23T11:11:25.653Z,70.66
2023-11-23T11:14:04.400Z,70.67
2023-11-23T11:16:35.524Z,70.70
2023-11-23T11:19:10.585Z,69.97
2023-11-23T11:22:01.226Z,69.97
2023-11-23T11:24:28.024Z,69.90
2023-11-23T11:27:04.926Z,70.07
2023-11-23T11:29:31.845Z,69.24
2023-11-23T11:31:58.449Z,70.28
2023-11-23T11:34:29.354Z,69.82
2023-11-23T11:37:00.845Z,68.96
2023-11-23T11:39:37.549Z,69.20
2023-11-23T11:42:05.724Z,69.91
2023-11-23T11:44:36.466Z,68.38
2023-11-23T11:47:07.250Z,68.10
2023-11-23T11:49:35.723Z,66.97
2023-11-23T11:52:02.515Z,67.68
2023-11-23T11:54:29.677Z,67.85
2023-11-23T11:56:56.220Z,68.18
2023-11-23T11:59:28.062Z,69.74
2023-11-23T12:01:56.087Z,68.69
2023-11-23T12:04:23.186Z,69.67
2023-11-23T12:06:50.247Z,70.25
2023-11-23T12:09:21.721Z,69.69
2023-11-23T12:12:05.852Z,68.80
2023-11-23T12:14:36.063Z,69.80
2023-11-23T12:17:13.780Z,69.67
2023-11-23T12:19:55.364Z,70.07
2023-11-23T12:22:29.318Z,70.76
2023-11-23T12:25:00.351Z,70.44
2023-11-23T12:27:27.890Z,70.08
2023-11-23T12:29:54.981Z,70.70
2023-11-23T12:32:22.797Z,71.06
2023-11-23T12:34:49.384Z,70.83
2023-11-23T12:37:16.725Z,70.67
2023-11-23T12:39:48.619Z,71.30
2023-11-23T12:42:15.238Z,71.43
2023-11-23T12:44:41.769Z,72.73
2023-11-23T12:47:08.454Z,71.85
2023-11-23T12:49:35.066Z,72.19
2023-11-23T12:52:04.338Z,71.08
2023-11-23T12:54:33.385Z,72.12
2023-11-23T12:56:59.984Z,71.79
2023-11-23T12:59:26.603Z,72.26
2023-11-23T13:01:57.246Z,72.25
2023-11-23T13:04:29.556Z,73.29
2023-11-23T13:06:58.599Z,73.13
2023-11-23T13:12:11.447Z,72.38
2023-11-23T13:14:52.402Z,72.79
2023-11-23T13:17:28.137Z,73.20
2023-11-23T13:19:55.008Z,73.24
2023-11-23T13:22:21.624Z,73.20
2023-11-23T13:24:51.907Z,73.53
2023-11-23T13:27:18.496Z,73.77
2023-11-23T13:29:53.753Z,74.04
2023-11-23T13:32:20.689Z,74.20
2023-11-23T13:34:47.297Z,74.18
2023-11-23T13:37:13.972Z,74.51
2023-11-23T13:39:40.556Z,74.41
2023-11-23T13:42:07.477Z,74.76
2023-11-23T13:44:34.601Z,74.88
2023-11-23T13:47:02.025Z,75.06
2023-11-23T13:49:28.604Z,74.57
2023-11-23T13:51:55.607Z,74.80
2023-11-23T13:54:22.735Z,74.68
2023-11-23T13:57:05.405Z,75.17
2023-11-23T14:00:06.110Z,75.55
2023-11-23T14:02:37.508Z,75.35
2023-11-23T14:05:06.759Z,75.69
2023-11-23T14:07:33.343Z,75.58
2023-11-23T14:10:00.273Z,75.64
2023-11-23T14:12:27.034Z,75.49
2023-11-23T14:14:54.921Z,75.46
2023-11-23T14:17:21.533Z,75.19
2023-11-23T14:19:48.488Z,75.11
2023-11-23T14:22:17.829Z,75.52
2023-11-23T14:24:46.237Z,75.16
2023-11-23T14:27:12.976Z,74.97
2023-11-23T14:29:40.835Z,75.87
2023-11-23T14:32:07.605Z,76.48
2023-11-23T14:34:34.559Z,76.10
2023-11-23T14:37:05.780Z,75.12
2023-11-23T14:39:33.957Z,75.14
2023-11-23T14:42:02.000Z,75.31
2023-11-23T14:44:29.821Z,75.78
2023-11-23T14:46:56.506Z,75.51
2023-11-23T14:49:23.898Z,75.67
2023-11-23T14:51:52.026Z,75.58
2023-11-23T14:54:37.111Z,75.94
2023-11-23T14:57:09.116Z,75.51
2023-11-23T14:59:40.311Z,75.81
2023-11-23T15:02:07.904Z,76.24
2023-11-23T15:04:37.420Z,76.55
2023-11-23T15:07:04.293Z,76.67
2023-11-23T15:09:31.014Z,76.14
2023-11-23T15:12:01.017Z,76.52
2023-11-23T15:14:27.650Z,76.29
2023-11-23T15:16:54.459Z,76.37
2023-11-23T15:19:24.778Z,76.31
2023-11-23T15:21:51.398Z,75.85
2023-11-23T15:24:18.683Z,76.37
2023-11-23T15:26:47.318Z,76.66
2023-11-23T15:29:16.240Z,76.54
2023-11-23T15:31:44.563Z,76.69
2023-11-23T15:34:11.690Z,76.75
2023-11-23T15:36:40.168Z,77.59
2023-11-23T15:39:08.106Z,76.99
2023-11-23T15:41:37.656Z,76.74
2023-11-23T15:44:06.714Z,76.71
2023-11-23T15:46:33.489Z,76.71
2023-11-23T15:49:00.222Z,77.23
2023-11-23T15:51:28.609Z,77.21
2023-11-23T15:53:59.052Z,77.69
2023-11-23T15:56:26.194Z,77.15
2023-11-23T15:58:52.774Z,77.09
2023-11-23T16:01:26.252Z,77.03
2023-11-23T16:03:54.339Z,77.06
2023-11-23T16:06:21.135Z,78.03
2023-11-23T16:08:47.749Z,77.91
2023-11-23T16:11:15.233Z,77.82
2023-11-23T16:13:43.547Z,78.28
2023-11-23T16:16:13.533Z,78.08
2023-11-23T16:18:40.364Z,77.96
2023-11-23T16:21:07.411Z,79.03
2023-11-23T16:23:33.972Z,78.90
2023-11-23T16:26:00.753Z,79.24
2023-11-23T16:28:27.392Z,78.98
2023-11-23T16:30:55.121Z,78.58
2023-11-23T16:33:21.850Z,78.82
2023-11-23T16:35:54.844Z,78.77
2023-11-23T16:38:26.139Z,78.77
2023-11-23T16:40:53.131Z,78.81
2023-11-23T16:43:19.985Z,78.69
2023-11-23T16:45:46.872Z,79.00
2023-11-23T16:48:14.015Z,78.95
2023-11-23T16:50:40.779Z,78.95
2023-11-23T16:53:07.352Z,79.16
2023-11-23T16:55:38.297Z,79.12
2023-11-23T16:58:06.105Z,79.18
2023-11-23T17:00:36.216Z,79.52
2023-11-23T17:03:05.126Z,79.06
2023-11-23T17:05:33.463Z,79.19
2023-11-23T17:08:00.188Z,79.51
2023-11-23T17:10:28.583Z,79.35
2023-11-23T17:12:55.241Z,79.53
2023-11-23T17:15:22.549Z,79.22
2023-11-23T17:17:49.544Z,79.46
2023-11-23T17:20:16.963Z,79.47
2023-11-23T17:22:44.290Z,79.43
2023-11-23T17:25:12.158Z,79.59
2023-11-23T17:27:40.424Z,78.91
2023-11-23T17:30:07.788Z,79.57
2023-11-23T17:32:34.367Z,79.92
2023-11-23T17:35:01.050Z,80.14
2023-11-23T17:37:27.553Z,79.93
2023-11-23T17:39:54.398Z,80.39
2023-11-23T17:42:21.159Z,80.20
2023-11-23T17:44:47.742Z,80.20
2023-11-23T17:47:14.471Z,81.55
2023-11-23T17:49:41.027Z,81.94
2023-11-23T17:52:07.589Z,81.12
2023-11-23T17:54:36.724Z,81.61
2023-11-23T17:57:03.300Z,82.77
2023-11-23T17:59:43.288Z,83.09
2023-11-23T18:02:19.567Z,83.35
2023-11-23T18:04:47.002Z,82.85
2023-11-23T18:07:13.521Z,83.53
2023-11-23T18:09:40.107Z,84.80
2023-11-23T18:12:09.836Z,90.33
2023-11-23T18:14:37.182Z,89.63
2023-11-23T18:17:03.987Z,87.20
2023-11-23T18:19:31.473Z,86.84
2023-11-23T18:21:58.032Z,88.38
2023-11-23T18:24:24.604Z,88.14
2023-11-23T18:26:51.846Z,88.46
2023-11-23T18:29:18.521Z,87.95
2023-11-23T18:31:45.212Z,87.99
2023-11-23T18:34:12.260Z,88.20
2023-11-23T18:36:39.330Z,88.26
2023-11-23T18:39:08.317Z,88.51
2023-11-23T18:41:35.861Z,88.09
2023-11-23T18:44:02.579Z,89.25
2023-11-23T18:46:29.119Z,90.13
2023-11-23T18:48:56.668Z,90.29
2023-11-23T18:51:23.565Z,90.24
2023-11-23T18:53:50.158Z,91.00
2023-11-23T18:56:16.860Z,90.49
2023-11-23T18:58:44.622Z,90.49
2023-11-23T19:01:11.363Z,91.69
2023-11-23T19:03:38.072Z,91.14
2023-11-23T19:06:05.274Z,91.56
2023-11-23T19:08:32.292Z,92.13
2023-11-23T19:10:59.313Z,92.54
2023-11-23T19:13:28.913Z,92.41
2023-11-23T19:15:56.291Z,92.04
2023-11-23T19:18:26.864Z,92.67
2023-11-23T19:20:53.911Z,91.93
2023-11-23T19:23:20.870Z,92.02
2023-11-23T19:25:50.039Z,92.49
2023-11-23T19:28:17.436Z,93.66
2023-11-23T19:30:45.635Z,95.41
2023-11-23T19:33:12.887Z,94.45
2023-11-23T19:35:39.858Z,92.72
2023-11-23T19:38:06.762Z,93.29
2023-11-23T19:40:43.550Z,93.29
2023-11-23T19:44:09.716Z,100.00
2023-11-23T19:47:38.112Z,100.00
2023-11-23T19:51:04.589Z,100.00
2023-11-23T19:54:34.058Z,100.00
2023-11-23T19:57:59.798Z,100.00
2023-11-23T20:01:29.299Z,100.00
2023-11-23T20:04:54.914Z,100.00
2023-11-23T20:08:19.987Z,100.00
2023-11-23T20:11:45.959Z,100.00
2023-11-23T20:15:11.053Z,100.00
2023-11-23T20:18:36.201Z,100.00
2023-11-23T20:22:02.000Z,100.00
2023-11-23T20:25:27.203Z,100.00
2023-11-23T20:28:52.259Z,100.00
2023-11-23T20:32:17.312Z,100.00
2023-11-23T20:35:42.411Z,100.00
2023-11-23T20:39:07.603Z,100.00
2023-11-23T20:42:32.947Z,100.00
2023-11-23T20:45:59.173Z,100.00
2023-11-23T20:49:26.181Z,100.00
2023-11-23T20:52:51.307Z,100.00
2023-11-23T20:56:16.592Z,100.00
2023-11-23T20:59:41.956Z,100.00
2023-11-23T21:03:07.652Z,100.00
2023-11-23T21:06:33.289Z,100.00
2023-11-23T21:09:58.565Z,100.00
2023-11-23T21:13:23.573Z,100.00
2023-11-23T21:16:52.988Z,100.00
2023-11-23T21:20:18.220Z,100.00
2023-11-23T21:23:43.272Z,100.00
2023-11-23T21:27:08.261Z,100.00
2023-11-23T21:30:33.372Z,100.00
2023-11-23T21:34:02.126Z,100.00
2023-11-23T21:37:28.575Z,100.00
2023-11-23T21:40:55.495Z,100.00
2023-11-23T21:44:20.660Z,100.00
2023-11-23T21:47:46.194Z,100.00
2023-11-23T21:51:11.311Z,100.00
2023-11-23T21:54:40.754Z,100.00
2023-11-23T21:58:09.941Z,100.00
2023-11-23T22:01:35.480Z,100.00
2023-11-23T22:05:00.566Z,100.00
2023-11-23T22:08:25.780Z,100.00
2023-11-23T22:11:51.729Z,100.00
2023-11-23T22:15:16.807Z,100.00
2023-11-23T22:18:42.107Z,100.00
2023-11-23T22:22:07.645Z,100.00
2023-11-23T22:25:34.116Z,100.00
2023-11-23T22:28:59.696Z,100.00
2023-11-23T22:32:26.800Z,100.00
2023-11-23T22:35:52.508Z,100.00
2023-11-23T22:39:17.870Z,100.00
2023-11-23T22:42:42.681Z,100.00
2023-11-23T22:45:31.583Z,100.00
2023-11-23T22:48:56.606Z,100.00
2023-11-23T22:51:23.230Z,100.00
2023-11-23T22:53:50.175Z,100.00
2023-11-23T22:56:16.744Z,100.00
2023-11-23T22:58:43.725Z,100.00
2023-11-23T23:01:10.468Z,100.00
2023-11-23T23:03:37.375Z,100.00
2023-11-23T23:06:04.245Z,100.00
2023-11-23T23:08:30.890Z,100.00
2023-11-23T23:10:58.275Z,100.00
2023-11-23T23:13:24.784Z,100.00
2023-11-23T23:15:51.441Z,100.00
2023-11-23T23:18:18.155Z,100.00
2023-11-23T23:20:48.448Z,100.00
2023-11-23T23:23:15.890Z,100.00
2023-11-23T23:25:43.580Z,100.00
2023-11-23T23:28:22.206Z,100.00
2023-11-23T23:30:56.753Z,100.00
2023-11-23T23:33:23.351Z,100.00
2023-11-23T23:35:50.324Z,100.00
2023-11-23T23:38:17.925Z,100.00
2023-11-23T23:40:44.766Z,100.00
2023-11-23T23:43:11.424Z,100.00
2023-11-23T23:45:38.106Z,100.00
2023-11-23T23:48:05.954Z,100.00
2023-11-23T23:50:32.673Z,100.00
2023-11-23T23:52:59.157Z,100.00
2023-11-23T23:55:25.701Z,100.00
2023-11-23T23:57:52.327Z,100.00
